sensor_id;sensor_type;location;lat;lon;timestamp;pressure;altitude;pressure_sealevel;temperature;humidity
43298;BME280;28892;55.640;37.532;2023-02-28T00:00:17;99180.50;;;-4.64;60.26
43298;BME280;28892;55.640;37.532;2023-02-28T00:02:44;99176.63;;;-4.56;60.12
43298;BME280;28892;55.640;37.532;2023-02-28T00:05:12;99178.94;;;-4.52;60.11
43298;BME280;28892;55.640;37.532;2023-02-28T00:07:38;99172.84;;;-4.51;59.66
43298;BME280;28892;55.640;37.532;2023-02-28T00:10:06;99169.38;;;-4.50;59.64
43298;BME280;28892;55.640;37.532;2023-02-28T00:12:33;99150.22;;;-4.47;59.47
43298;BME280;28892;55.640;37.532;2023-02-28T00:14:59;99149.69;;;-4.38;59.07
43298;BME280;28892;55.640;37.532;2023-02-28T00:17:25;99140.59;;;-4.45;58.72
43298;BME280;28892;55.640;37.532;2023-02-28T00:19:51;99152.06;;;-4.49;58.85
43298;BME280;28892;55.640;37.532;2023-02-28T00:22:19;99148.59;;;-4.80;59.27
43298;BME280;28892;55.640;37.532;2023-02-28T00:24:46;99148.53;;;-4.79;59.18
43298;BME280;28892;55.640;37.532;2023-02-28T00:27:12;99146.75;;;-4.78;59.22
43298;BME280;28892;55.640;37.532;2023-02-28T00:29:38;99131.94;;;-5.07;59.29
43298;BME280;28892;55.640;37.532;2023-02-28T00:32:05;99120.03;;;-5.09;59.70
43298;BME280;28892;55.640;37.532;2023-02-28T00:34:31;99141.53;;;-5.09;59.87
43298;BME280;28892;55.640;37.532;2023-02-28T00:37:07;99134.38;;;-5.03;59.94
43298;BME280;28892;55.640;37.532;2023-02-28T00:39:36;99134.09;;;-4.99;59.57
43298;BME280;28892;55.640;37.532;2023-02-28T00:42:03;99136.78;;;-5.00;59.84
43298;BME280;28892;55.640;37.532;2023-02-28T00:44:29;99129.22;;;-5.03;59.69
43298;BME280;28892;55.640;37.532;2023-02-28T00:46:56;99138.13;;;-5.57;60.96
43298;BME280;28892;55.640;37.532;2023-02-28T00:49:24;99123.84;;;-5.49;61.26
43298;BME280;28892;55.640;37.532;2023-02-28T00:51:50;99125.28;;;-5.27;60.56
43298;BME280;28892;55.640;37.532;2023-02-28T00:54:16;99118.19;;;-5.23;60.48
43298;BME280;28892;55.640;37.532;2023-02-28T00:56:42;99116.94;;;-5.16;60.26
43298;BME280;28892;55.640;37.532;2023-02-28T00:59:08;99113.16;;;-5.26;60.67
43298;BME280;28892;55.640;37.532;2023-02-28T01:01:34;99112.59;;;-5.15;60.45
43298;BME280;28892;55.640;37.532;2023-02-28T01:03:59;99108.34;;;-5.33;60.38
43298;BME280;28892;55.640;37.532;2023-02-28T01:06:26;99096.16;;;-5.30;60.38
43298;BME280;28892;55.640;37.532;2023-02-28T01:08:51;99110.34;;;-5.22;60.68
43298;BME280;28892;55.640;37.532;2023-02-28T01:11:18;99105.69;;;-5.31;60.33
43298;BME280;28892;55.640;37.532;2023-02-28T01:13:45;99107.25;;;-5.12;60.13
43298;BME280;28892;55.640;37.532;2023-02-28T01:16:12;99104.41;;;-5.08;59.78
43298;BME280;28892;55.640;37.532;2023-02-28T01:18:41;99099.72;;;-5.01;59.57
43298;BME280;28892;55.640;37.532;2023-02-28T01:21:12;99093.72;;;-5.01;59.80
43298;BME280;28892;55.640;37.532;2023-02-28T01:23:39;99085.81;;;-5.14;59.92
43298;BME280;28892;55.640;37.532;2023-02-28T01:26:13;99081.38;;;-5.12;60.18
43298;BME280;28892;55.640;37.532;2023-02-28T01:28:39;99077.72;;;-5.08;59.92
43298;BME280;28892;55.640;37.532;2023-02-28T01:31:05;99075.53;;;-5.16;59.92
43298;BME280;28892;55.640;37.532;2023-02-28T01:33:32;99068.16;;;-5.22;60.16
43298;BME280;28892;55.640;37.532;2023-02-28T01:36:04;99049.38;;;-5.42;60.58
43298;BME280;28892;55.640;37.532;2023-02-28T01:38:31;99052.28;;;-5.32;60.53
43298;BME280;28892;55.640;37.532;2023-02-28T01:40:57;99054.53;;;-5.26;60.28
43298;BME280;28892;55.640;37.532;2023-02-28T01:45:50;99036.63;;;-5.29;59.93
43298;BME280;28892;55.640;37.532;2023-02-28T01:48:16;99041.44;;;-5.23;60.14
43298;BME280;28892;55.640;37.532;2023-02-28T01:50:46;99033.94;;;-5.27;59.79
43298;BME280;28892;55.640;37.532;2023-02-28T01:53:16;99041.78;;;-5.29;60.31
43298;BME280;28892;55.640;37.532;2023-02-28T01:55:47;99026.78;;;-5.38;60.46
43298;BME280;28892;55.640;37.532;2023-02-28T01:58:15;99012.25;;;-5.25;60.18
43298;BME280;28892;55.640;37.532;2023-02-28T02:00:41;98996.81;;;-5.26;59.75
43298;BME280;28892;55.640;37.532;2023-02-28T02:03:12;99007.38;;;-5.15;59.88
43298;BME280;28892;55.640;37.532;2023-02-28T02:05:39;99004.44;;;-5.09;59.64
43298;BME280;28892;55.640;37.532;2023-02-28T02:08:12;99002.19;;;-5.45;59.59
43298;BME280;28892;55.640;37.532;2023-02-28T02:10:58;99005.53;;;-5.59;61.20
43298;BME280;28892;55.640;37.532;2023-02-28T02:34:38;98964.97;;;-5.27;60.54
43298;BME280;28892;55.640;37.532;2023-02-28T02:37:09;98976.66;;;-5.36;60.35
43298;BME280;28892;55.640;37.532;2023-02-28T02:42:41;98974.00;;;-5.50;61.25
43298;BME280;28892;55.640;37.532;2023-02-28T02:45:13;98963.81;;;-5.37;60.60
43298;BME280;28892;55.640;37.532;2023-02-28T02:47:42;98964.06;;;-5.42;60.33
43298;BME280;28892;55.640;37.532;2023-02-28T02:50:14;98958.56;;;-5.36;60.69
43298;BME280;28892;55.640;37.532;2023-02-28T02:52:46;98952.25;;;-5.15;60.33
43298;BME280;28892;55.640;37.532;2023-02-28T02:55:15;98947.25;;;-5.19;60.01
43298;BME280;28892;55.640;37.532;2023-02-28T02:57:55;98945.94;;;-5.72;60.72
43298;BME280;28892;55.640;37.532;2023-02-28T03:00:29;98934.34;;;-5.65;61.18
43298;BME280;28892;55.640;37.532;2023-02-28T03:02:57;98927.81;;;-5.40;60.41
43298;BME280;28892;55.640;37.532;2023-02-28T03:05:34;98923.22;;;-5.21;60.21
43298;BME280;28892;55.640;37.532;2023-02-28T03:08:04;98921.81;;;-5.26;60.12
43298;BME280;28892;55.640;37.532;2023-02-28T03:10:37;98907.41;;;-5.30;60.09
43298;BME280;28892;55.640;37.532;2023-02-28T03:13:12;98913.44;;;-5.30;59.98
43298;BME280;28892;55.640;37.532;2023-02-28T03:26:26;98895.94;;;-5.71;60.93
43298;BME280;28892;55.640;37.532;2023-02-28T03:29:12;98861.59;;;-5.43;60.40
43298;BME280;28892;55.640;37.532;2023-02-28T03:31:44;98882.16;;;-5.72;60.47
43298;BME280;28892;55.640;37.532;2023-02-28T03:36:48;98862.84;;;-5.50;59.83
43298;BME280;28892;55.640;37.532;2023-02-28T03:39:30;98863.16;;;-5.40;59.93
43298;BME280;28892;55.640;37.532;2023-02-28T03:42:03;98853.19;;;-5.47;59.72
43298;BME280;28892;55.640;37.532;2023-02-28T03:44:42;98858.09;;;-5.42;59.87
43298;BME280;28892;55.640;37.532;2023-02-28T03:48:05;98843.50;;;-5.43;59.83
43298;BME280;28892;55.640;37.532;2023-02-28T03:50:08;98845.22;;;-5.43;59.75
43298;BME280;28892;55.640;37.532;2023-02-28T03:52:40;98841.56;;;-5.39;59.68
43298;BME280;28892;55.640;37.532;2023-02-28T03:55:11;98845.75;;;-5.53;59.49
43298;BME280;28892;55.640;37.532;2023-02-28T03:57:58;98835.66;;;-5.41;59.80
43298;BME280;28892;55.640;37.532;2023-02-28T04:00:31;98814.69;;;-5.37;59.60
43298;BME280;28892;55.640;37.532;2023-02-28T04:03:01;98821.44;;;-5.34;58.69
43298;BME280;28892;55.640;37.532;2023-02-28T04:05:28;98820.41;;;-5.46;59.47
43298;BME280;28892;55.640;37.532;2023-02-28T04:08:06;98814.53;;;-5.64;59.71
43298;BME280;28892;55.640;37.532;2023-02-28T04:10:32;98821.94;;;-5.58;59.64
43298;BME280;28892;55.640;37.532;2023-02-28T04:12:58;98794.00;;;-5.51;59.58
43298;BME280;28892;55.640;37.532;2023-02-28T04:15:23;98799.25;;;-5.53;59.39
43298;BME280;28892;55.640;37.532;2023-02-28T04:17:50;98779.41;;;-5.52;59.21
43298;BME280;28892;55.640;37.532;2023-02-28T04:20:16;98790.75;;;-5.55;59.02
43298;BME280;28892;55.640;37.532;2023-02-28T04:22:49;98781.44;;;-5.43;59.44
43298;BME280;28892;55.640;37.532;2023-02-28T04:28:48;98783.53;;;-5.64;59.29
43298;BME280;28892;55.640;37.532;2023-02-28T04:31:42;98797.41;;;-5.51;59.17
43298;BME280;28892;55.640;37.532;2023-02-28T04:34:08;98786.03;;;-5.48;59.13
43298;BME280;28892;55.640;37.532;2023-02-28T04:36:34;98778.22;;;-5.47;59.03
43298;BME280;28892;55.640;37.532;2023-02-28T04:38:59;98764.75;;;-5.52;58.87
43298;BME280;28892;55.640;37.532;2023-02-28T04:41:25;98792.34;;;-5.38;59.02
43298;BME280;28892;55.640;37.532;2023-02-28T04:43:51;98778.03;;;-5.43;58.87
43298;BME280;28892;55.640;37.532;2023-02-28T04:46:18;98781.44;;;-5.43;59.09
43298;BME280;28892;55.640;37.532;2023-02-28T04:48:45;98773.50;;;-5.40;58.69
43298;BME280;28892;55.640;37.532;2023-02-28T04:51:13;98784.50;;;-5.07;58.39
43298;BME280;28892;55.640;37.532;2023-02-28T04:53:40;98764.84;;;-5.10;57.96
43298;BME280;28892;55.640;37.532;2023-02-28T04:56:07;98754.50;;;-5.24;58.24
43298;BME280;28892;55.640;37.532;2023-02-28T04:58:35;98743.25;;;-5.23;58.32
43298;BME280;28892;55.640;37.532;2023-02-28T05:01:16;98738.88;;;-5.08;57.82
43298;BME280;28892;55.640;37.532;2023-02-28T05:03:43;98730.47;;;-5.26;57.73
43298;BME280;28892;55.640;37.532;2023-02-28T05:06:10;98736.13;;;-5.20;58.03
43298;BME280;28892;55.640;37.532;2023-02-28T05:08:36;98736.69;;;-5.29;57.43
43298;BME280;28892;55.640;37.532;2023-02-28T05:11:08;98737.69;;;-5.02;57.05
43298;BME280;28892;55.640;37.532;2023-02-28T05:13:37;98738.66;;;-4.91;56.96
43298;BME280;28892;55.640;37.532;2023-02-28T05:16:03;98733.59;;;-4.92;56.30
43298;BME280;28892;55.640;37.532;2023-02-28T05:18:29;98728.31;;;-4.91;56.32
43298;BME280;28892;55.640;37.532;2023-02-28T05:20:54;98723.56;;;-4.84;56.63
43298;BME280;28892;55.640;37.532;2023-02-28T05:23:23;98706.22;;;-4.82;56.27
43298;BME280;28892;55.640;37.532;2023-02-28T05:25:49;98701.78;;;-4.80;56.70
43298;BME280;28892;55.640;37.532;2023-02-28T05:28:15;98702.31;;;-5.16;55.86
43298;BME280;28892;55.640;37.532;2023-02-28T05:30:40;98692.59;;;-4.71;56.62
43298;BME280;28892;55.640;37.532;2023-02-28T05:33:06;98692.06;;;-4.36;55.65
43298;BME280;28892;55.640;37.532;2023-02-28T05:35:32;98675.44;;;-4.05;54.79
43298;BME280;28892;55.640;37.532;2023-02-28T05:37:57;98674.13;;;-3.98;54.13
43298;BME280;28892;55.640;37.532;2023-02-28T05:40:26;98656.19;;;-3.62;53.93
43298;BME280;28892;55.640;37.532;2023-02-28T05:42:54;98637.81;;;-3.46;53.74
43298;BME280;28892;55.640;37.532;2023-02-28T05:45:25;98649.66;;;-3.18;53.35
43298;BME280;28892;55.640;37.532;2023-02-28T05:47:55;98637.69;;;-3.07;51.69
43298;BME280;28892;55.640;37.532;2023-02-28T05:50:24;98659.28;;;-2.83;51.80
43298;BME280;28892;55.640;37.532;2023-02-28T05:52:50;98642.72;;;-2.69;51.57
43298;BME280;28892;55.640;37.532;2023-02-28T05:55:16;98628.03;;;-2.81;50.90
43298;BME280;28892;55.640;37.532;2023-02-28T05:57:42;98611.56;;;-2.69;50.09
43298;BME280;28892;55.640;37.532;2023-02-28T06:00:09;98610.41;;;-2.53;51.42
43298;BME280;28892;55.640;37.532;2023-02-28T06:02:39;98608.78;;;-2.43;50.06
43298;BME280;28892;55.640;37.532;2023-02-28T06:05:12;98603.84;;;-2.46;49.63
43298;BME280;28892;55.640;37.532;2023-02-28T06:07:42;98599.06;;;-2.88;49.50
43298;BME280;28892;55.640;37.532;2023-02-28T06:10:17;98601.47;;;-3.09;51.04
43298;BME280;28892;55.640;37.532;2023-02-28T06:12:43;98598.06;;;-2.98;50.71
43298;BME280;28892;55.640;37.532;2023-02-28T06:15:13;98581.63;;;-2.39;50.11
43298;BME280;28892;55.640;37.532;2023-02-28T06:17:40;98578.16;;;-2.03;49.74
43298;BME280;28892;55.640;37.532;2023-02-28T06:20:09;98556.16;;;-1.76;48.57
43298;BME280;28892;55.640;37.532;2023-02-28T06:22:36;98558.97;;;-1.45;48.68
43298;BME280;28892;55.640;37.532;2023-02-28T06:25:03;98564.22;;;-1.68;47.58
43298;BME280;28892;55.640;37.532;2023-02-28T06:27:31;98543.34;;;-1.34;47.59
43298;BME280;28892;55.640;37.532;2023-02-28T06:29:57;98549.75;;;-1.38;47.41
43298;BME280;28892;55.640;37.532;2023-02-28T06:32:23;98563.56;;;-1.37;47.44
43298;BME280;28892;55.640;37.532;2023-02-28T06:34:48;98555.22;;;-1.87;48.93
43298;BME280;28892;55.640;37.532;2023-02-28T06:37:16;98535.50;;;-1.78;48.23
43298;BME280;28892;55.640;37.532;2023-02-28T06:39:45;98522.03;;;-1.94;48.43
43298;BME280;28892;55.640;37.532;2023-02-28T06:42:14;98495.19;;;-1.72;48.47
43298;BME280;28892;55.640;37.532;2023-02-28T06:44:42;98511.34;;;-1.69;47.64
43298;BME280;28892;55.640;37.532;2023-02-28T06:47:08;98516.56;;;-1.69;48.88
43298;BME280;28892;55.640;37.532;2023-02-28T06:49:35;98509.50;;;-1.34;48.35
43298;BME280;28892;55.640;37.532;2023-02-28T06:52:02;98512.38;;;-1.37;47.89
43298;BME280;28892;55.640;37.532;2023-02-28T06:54:27;98514.72;;;-1.78;47.41
43298;BME280;28892;55.640;37.532;2023-02-28T06:56:53;98489.41;;;-1.76;48.05
43298;BME280;28892;55.640;37.532;2023-02-28T06:59:22;98487.13;;;-1.69;47.80
43298;BME280;28892;55.640;37.532;2023-02-28T07:01:47;98487.69;;;-1.54;48.08
43298;BME280;28892;55.640;37.532;2023-02-28T07:04:13;98480.81;;;-1.44;47.84
43298;BME280;28892;55.640;37.532;2023-02-28T07:06:39;98461.72;;;-1.65;47.62
43298;BME280;28892;55.640;37.532;2023-02-28T07:09:04;98473.22;;;-1.47;48.13
43298;BME280;28892;55.640;37.532;2023-02-28T07:11:30;98459.56;;;-1.60;48.48
43298;BME280;28892;55.640;37.532;2023-02-28T07:13:57;98450.44;;;-1.55;48.22
43298;BME280;28892;55.640;37.532;2023-02-28T07:16:24;98442.91;;;-1.36;48.30
43298;BME280;28892;55.640;37.532;2023-02-28T07:18:52;98447.69;;;-1.20;48.16
43298;BME280;28892;55.640;37.532;2023-02-28T07:21:19;98440.16;;;-1.23;48.11
43298;BME280;28892;55.640;37.532;2023-02-28T07:23:44;98409.44;;;-1.30;48.60
43298;BME280;28892;55.640;37.532;2023-02-28T07:26:13;98408.81;;;-1.22;48.75
43298;BME280;28892;55.640;37.532;2023-02-28T07:28:44;98418.31;;;-1.11;49.38
43298;BME280;28892;55.640;37.532;2023-02-28T07:31:10;98410.97;;;-1.06;49.24
43298;BME280;28892;55.640;37.532;2023-02-28T07:33:37;98410.63;;;-1.99;50.32
43298;BME280;28892;55.640;37.532;2023-02-28T07:36:07;98411.97;;;-1.72;50.57
43298;BME280;28892;55.640;37.532;2023-02-28T07:38:34;98409.88;;;-1.46;50.34
43298;BME280;28892;55.640;37.532;2023-02-28T07:41:01;98422.16;;;-1.48;50.13
43298;BME280;28892;55.640;37.532;2023-02-28T07:43:30;98393.63;;;-1.17;50.05
43298;BME280;28892;55.640;37.532;2023-02-28T07:46:09;98378.91;;;-1.06;49.23
43298;BME280;28892;55.640;37.532;2023-02-28T07:48:35;98408.56;;;-1.19;49.47
43298;BME280;28892;55.640;37.532;2023-02-28T07:51:01;98375.53;;;-0.97;49.55
43298;BME280;28892;55.640;37.532;2023-02-28T07:53:28;98396.38;;;-1.18;49.48
43298;BME280;28892;55.640;37.532;2023-02-28T07:55:58;98406.25;;;-0.91;50.20
43298;BME280;28892;55.640;37.532;2023-02-28T07:58:25;98401.25;;;-1.04;49.92
43298;BME280;28892;55.640;37.532;2023-02-28T08:00:51;98385.47;;;-0.81;49.61
43298;BME280;28892;55.640;37.532;2023-02-28T08:03:19;98385.47;;;-0.81;50.46
43298;BME280;28892;55.640;37.532;2023-02-28T08:05:46;98373.25;;;-1.33;50.92
43298;BME280;28892;55.640;37.532;2023-02-28T08:08:11;98367.97;;;-1.00;50.89
43298;BME280;28892;55.640;37.532;2023-02-28T08:10:37;98373.19;;;-0.69;49.92
43298;BME280;28892;55.640;37.532;2023-02-28T08:13:03;98364.13;;;-0.34;50.01
43298;BME280;28892;55.640;37.532;2023-02-28T08:15:29;98346.75;;;-0.04;49.03
43298;BME280;28892;55.640;37.532;2023-02-28T08:17:55;98370.13;;;0.37;48.43
43298;BME280;28892;55.640;37.532;2023-02-28T08:23:49;98346.06;;;0.14;48.17
43298;BME280;28892;55.640;37.532;2023-02-28T08:26:16;98339.19;;;-0.26;48.87
43298;BME280;28892;55.640;37.532;2023-02-28T08:28:43;98338.94;;;-0.04;48.99
43298;BME280;28892;55.640;37.532;2023-02-28T08:31:14;98312.00;;;-0.24;49.28
43298;BME280;28892;55.640;37.532;2023-02-28T08:33:41;98319.97;;;-0.16;48.77
43298;BME280;28892;55.640;37.532;2023-02-28T08:36:07;98314.53;;;-0.63;50.16
43298;BME280;28892;55.640;37.532;2023-02-28T08:38:37;98284.03;;;-0.41;49.80
43298;BME280;28892;55.640;37.532;2023-02-28T08:41:06;98308.47;;;-0.74;50.43
43298;BME280;28892;55.640;37.532;2023-02-28T08:43:33;98289.44;;;-1.05;50.97
43298;BME280;28892;55.640;37.532;2023-02-28T08:45:59;98297.78;;;-0.71;52.25
43298;BME280;28892;55.640;37.532;2023-02-28T08:48:27;98275.13;;;0.01;50.01
43298;BME280;28892;55.640;37.532;2023-02-28T08:51:03;98318.22;;;0.34;49.77
43298;BME280;28892;55.640;37.532;2023-02-28T08:53:29;98359.78;;;0.16;49.63
43298;BME280;28892;55.640;37.532;2023-02-28T08:56:00;98370.66;;;0.11;49.79
43298;BME280;28892;55.640;37.532;2023-02-28T08:58:26;98362.09;;;-0.30;50.30
43298;BME280;28892;55.640;37.532;2023-02-28T09:00:52;98360.16;;;-0.38;51.04
43298;BME280;28892;55.640;37.532;2023-02-28T09:03:19;98354.78;;;-0.36;51.01
43298;BME280;28892;55.640;37.532;2023-02-28T09:05:53;98344.41;;;-0.26;51.30
43298;BME280;28892;55.640;37.532;2023-02-28T09:08:19;98333.66;;;-0.43;51.48
43298;BME280;28892;55.640;37.532;2023-02-28T09:10:44;98340.09;;;-0.37;51.70
43298;BME280;28892;55.640;37.532;2023-02-28T09:13:10;98324.91;;;-0.32;52.04
43298;BME280;28892;55.640;37.532;2023-02-28T09:15:37;98326.28;;;-0.28;52.04
43298;BME280;28892;55.640;37.532;2023-02-28T09:18:03;98310.75;;;-0.39;52.38
43298;BME280;28892;55.640;37.532;2023-02-28T09:20:29;98326.84;;;-0.75;53.43
43298;BME280;28892;55.640;37.532;2023-02-28T09:22:55;98288.75;;;-0.66;53.33
43298;BME280;28892;55.640;37.532;2023-02-28T09:25:21;98284.50;;;-0.67;53.59
43298;BME280;28892;55.640;37.532;2023-02-28T09:27:46;98295.09;;;-0.59;53.68
43298;BME280;28892;55.640;37.532;2023-02-28T09:30:12;98289.75;;;-0.48;53.75
43298;BME280;28892;55.640;37.532;2023-02-28T09:32:38;98284.03;;;-0.32;53.43
43298;BME280;28892;55.640;37.532;2023-02-28T09:35:04;98283.84;;;-0.50;53.84
43298;BME280;28892;55.640;37.532;2023-02-28T09:37:30;98263.00;;;-0.50;54.11
43298;BME280;28892;55.640;37.532;2023-02-28T09:39:57;98298.75;;;-1.34;56.47
43298;BME280;28892;55.640;37.532;2023-02-28T09:42:31;98288.53;;;-0.94;55.96
43298;BME280;28892;55.640;37.532;2023-02-28T09:45:02;98299.03;;;-0.65;55.06
43298;BME280;28892;55.640;37.532;2023-02-28T09:47:36;98297.00;;;-0.61;54.91
43298;BME280;28892;55.640;37.532;2023-02-28T09:50:28;98288.81;;;-0.37;54.55
43298;BME280;28892;55.640;37.532;2023-02-28T09:52:56;98272.75;;;-0.52;54.58
43298;BME280;28892;55.640;37.532;2023-02-28T09:55:44;98287.69;;;-0.54;55.06
43298;BME280;28892;55.640;37.532;2023-02-28T09:58:19;98267.38;;;-0.50;54.98
43298;BME280;28892;55.640;37.532;2023-02-28T10:01:06;98266.03;;;-0.54;55.19
43298;BME280;28892;55.640;37.532;2023-02-28T10:03:56;98258.38;;;-0.36;55.31
43298;BME280;28892;55.640;37.532;2023-02-28T10:06:28;98240.81;;;-0.44;55.24
43298;BME280;28892;55.640;37.532;2023-02-28T10:09:31;98252.47;;;-0.29;55.18
43298;BME280;28892;55.640;37.532;2023-02-28T10:12:04;98233.13;;;-0.26;54.78
43298;BME280;28892;55.640;37.532;2023-02-28T10:14:33;98235.19;;;-0.30;54.76
43298;BME280;28892;55.640;37.532;2023-02-28T10:17:16;98233.28;;;-0.18;54.58
43298;BME280;28892;55.640;37.532;2023-02-28T10:25:37;98222.97;;;-0.39;55.16
43298;BME280;28892;55.640;37.532;2023-02-28T10:28:14;98209.94;;;-0.19;54.97
43298;BME280;28892;55.640;37.532;2023-02-28T10:30:43;98214.34;;;-0.20;54.52
43298;BME280;28892;55.640;37.532;2023-02-28T10:33:22;98211.47;;;-0.17;54.72
43298;BME280;28892;55.640;37.532;2023-02-28T10:36:31;98187.88;;;-0.45;55.50
43298;BME280;28892;55.640;37.532;2023-02-28T10:39:36;98176.38;;;-0.52;55.62
43298;BME280;28892;55.640;37.532;2023-02-28T10:42:28;98198.81;;;-0.71;56.23
43298;BME280;28892;55.640;37.532;2023-02-28T10:45:17;98204.75;;;-0.49;55.96
43298;BME280;28892;55.640;37.532;2023-02-28T10:48:36;98190.19;;;-0.81;56.87
43298;BME280;28892;55.640;37.532;2023-02-28T10:50:59;98178.66;;;-0.68;56.31
43298;BME280;28892;55.640;37.532;2023-02-28T10:56:25;98195.56;;;-0.53;56.23
43298;BME280;28892;55.640;37.532;2023-02-28T11:01:43;98169.91;;;-0.48;56.50
43298;BME280;28892;55.640;37.532;2023-02-28T11:04:20;98182.09;;;-0.58;56.90
43298;BME280;28892;55.640;37.532;2023-02-28T11:09:35;98167.16;;;-0.66;57.18
43298;BME280;28892;55.640;37.532;2023-02-28T11:12:07;98173.88;;;-0.73;57.42
43298;BME280;28892;55.640;37.532;2023-02-28T11:14:47;98152.78;;;-0.60;57.61
43298;BME280;28892;55.640;37.532;2023-02-28T11:17:20;98157.56;;;-0.55;57.79
43298;BME280;28892;55.640;37.532;2023-02-28T11:19:59;98150.31;;;-0.72;58.25
43298;BME280;28892;55.640;37.532;2023-02-28T11:22:39;98143.97;;;-0.79;58.75
43298;BME280;28892;55.640;37.532;2023-02-28T11:25:25;98153.47;;;-0.48;58.73
43298;BME280;28892;55.640;37.532;2023-02-28T11:27:59;98151.94;;;-0.51;58.27
43298;BME280;28892;55.640;37.532;2023-02-28T11:30:40;98141.81;;;-0.44;57.88
43298;BME280;28892;55.640;37.532;2023-02-28T11:33:29;98136.31;;;-0.90;59.03
43298;BME280;28892;55.640;37.532;2023-02-28T11:36:04;98139.47;;;-0.87;59.15
43298;BME280;28892;55.640;37.532;2023-02-28T11:38:37;98133.56;;;-0.89;59.04
43298;BME280;28892;55.640;37.532;2023-02-28T11:41:22;98141.81;;;-0.74;58.93
43298;BME280;28892;55.640;37.532;2023-02-28T11:54:52;98122.88;;;-0.56;58.45
43298;BME280;28892;55.640;37.532;2023-02-28T11:57:46;98127.00;;;-0.53;58.80
43298;BME280;28892;55.640;37.532;2023-02-28T12:00:45;98119.59;;;-0.78;59.45
43298;BME280;28892;55.640;37.532;2023-02-28T12:15:13;98102.75;;;-0.54;59.48
43298;BME280;28892;55.640;37.532;2023-02-28T12:26:44;98108.31;;;-0.29;60.52
43298;BME280;28892;55.640;37.532;2023-02-28T12:29:32;98091.16;;;-0.22;60.16
43298;BME280;28892;55.640;37.532;2023-02-28T12:32:13;98099.94;;;-0.23;60.44
43298;BME280;28892;55.640;37.532;2023-02-28T12:34:52;98086.63;;;-0.30;60.69
43298;BME280;28892;55.640;37.532;2023-02-28T12:37:43;98088.03;;;-0.35;60.97
43298;BME280;28892;55.640;37.532;2023-02-28T12:40:15;98067.22;;;-0.65;61.31
43298;BME280;28892;55.640;37.532;2023-02-28T12:42:48;98066.38;;;-0.46;61.07
43298;BME280;28892;55.640;37.532;2023-02-28T12:45:30;98069.41;;;-0.60;61.87
43298;BME280;28892;55.640;37.532;2023-02-28T12:48:06;98070.53;;;-0.53;61.75
43298;BME280;28892;55.640;37.532;2023-02-28T12:50:34;98063.97;;;-0.87;62.77
43298;BME280;28892;55.640;37.532;2023-02-28T12:53:25;98057.19;;;-0.60;62.90
43298;BME280;28892;55.640;37.532;2023-02-28T12:56:04;98051.88;;;-0.58;62.86
43298;BME280;28892;55.640;37.532;2023-02-28T12:58:58;98044.09;;;-0.97;64.12
43298;BME280;28892;55.640;37.532;2023-02-28T13:09:04;98029.28;;;-1.17;64.98
43298;BME280;28892;55.640;37.532;2023-02-28T13:12:19;98008.34;;;-1.15;65.30
43298;BME280;28892;55.640;37.532;2023-02-28T13:15:34;98003.41;;;-1.18;64.59
43298;BME280;28892;55.640;37.532;2023-02-28T13:24:55;97986.69;;;-1.06;64.25
43298;BME280;28892;55.640;37.532;2023-02-28T13:27:48;97988.63;;;-1.28;65.14
43298;BME280;28892;55.640;37.532;2023-02-28T13:36:56;97980.09;;;-0.80;63.17
43298;BME280;28892;55.640;37.532;2023-02-28T13:43:21;98011.81;;;-0.57;62.98
43298;BME280;28892;55.640;37.532;2023-02-28T13:49:33;97975.94;;;-0.73;63.40
43298;BME280;28892;55.640;37.532;2023-02-28T14:06:48;97973.56;;;-0.47;63.42
43298;BME280;28892;55.640;37.532;2023-02-28T14:09:23;97974.94;;;-0.52;63.37
43298;BME280;28892;55.640;37.532;2023-02-28T14:17:12;97967.63;;;-0.87;64.63
43298;BME280;28892;55.640;37.532;2023-02-28T14:19:40;97958.94;;;-0.67;64.29
43298;BME280;28892;55.640;37.532;2023-02-28T14:32:44;97960.94;;;-0.41;64.25
43298;BME280;28892;55.640;37.532;2023-02-28T14:39:17;97939.59;;;-0.27;64.25
43298;BME280;28892;55.640;37.532;2023-02-28T14:42:02;97937.50;;;-0.51;64.67
43298;BME280;28892;55.640;37.532;2023-02-28T14:44:30;97931.31;;;-0.50;65.25
43298;BME280;28892;55.640;37.532;2023-02-28T14:47:14;97920.47;;;-0.46;65.67
43298;BME280;28892;55.640;37.532;2023-02-28T14:49:49;97922.94;;;-0.44;65.70
43298;BME280;28892;55.640;37.532;2023-02-28T14:52:24;97927.44;;;-0.36;65.58
43298;BME280;28892;55.640;37.532;2023-02-28T14:55:06;97924.81;;;-0.26;65.82
43298;BME280;28892;55.640;37.532;2023-02-28T14:57:51;97920.09;;;-0.23;65.62
43298;BME280;28892;55.640;37.532;2023-02-28T15:00:32;97914.16;;;-0.43;66.62
43298;BME280;28892;55.640;37.532;2023-02-28T15:03:00;97911.56;;;-0.43;66.42
43298;BME280;28892;55.640;37.532;2023-02-28T15:05:32;97884.53;;;-0.42;66.21
43298;BME280;28892;55.640;37.532;2023-02-28T15:08:12;97914.38;;;-0.26;66.20
43298;BME280;28892;55.640;37.532;2023-02-28T15:10:54;97921.75;;;-0.22;66.22
43298;BME280;28892;55.640;37.532;2023-02-28T15:13:55;97899.50;;;-0.16;66.09
43298;BME280;28892;55.640;37.532;2023-02-28T15:16:37;97910.19;;;-0.09;65.95
43298;BME280;28892;55.640;37.532;2023-02-28T15:19:29;97909.47;;;-0.11;66.03
43298;BME280;28892;55.640;37.532;2023-02-28T15:22:16;97906.47;;;-0.35;66.70
43298;BME280;28892;55.640;37.532;2023-02-28T15:24:49;97896.13;;;-0.26;66.78
43298;BME280;28892;55.640;37.532;2023-02-28T15:27:45;97917.28;;;-0.11;66.30
43298;BME280;28892;55.640;37.532;2023-02-28T15:47:30;97890.53;;;0.15;65.34
43298;BME280;28892;55.640;37.532;2023-02-28T15:58:25;97884.25;;;0.07;65.58
43298;BME280;28892;55.640;37.532;2023-02-28T16:01:37;97871.88;;;0.09;66.13
43298;BME280;28892;55.640;37.532;2023-02-28T16:07:49;97883.72;;;0.04;66.27
43298;BME280;28892;55.640;37.532;2023-02-28T16:24:09;97884.47;;;0.32;66.06
43298;BME280;28892;55.640;37.532;2023-02-28T16:31:03;97877.56;;;0.23;66.18
43298;BME280;28892;55.640;37.532;2023-02-28T16:40:42;97859.13;;;0.43;65.06
43298;BME280;28892;55.640;37.532;2023-02-28T16:51:04;97851.31;;;0.24;65.91
43298;BME280;28892;55.640;37.532;2023-02-28T16:53:30;97868.56;;;0.35;66.07